createdAt,value
2023-06-05T00:01:53.369Z,14.88
2023-06-05T00:04:21.568Z,14.91
2023-06-05T00:06:48.137Z,14.96
2023-06-05T00:09:14.759Z,14.97
2023-06-05T00:11:41.480Z,14.96
2023-06-05T00:14:09.044Z,14.93
2023-06-05T00:16:35.977Z,14.89
2023-06-05T00:19:03.391Z,14.84
2023-06-05T00:21:30.119Z,14.78
2023-06-05T00:23:56.588Z,14.71
2023-06-05T00:26:23.089Z,14.63
2023-06-05T00:28:49.839Z,14.53
2023-06-05T00:31:19.035Z,14.42
2023-06-05T00:33:45.839Z,14.29
2023-06-05T00:36:12.595Z,14.17
2023-06-05T00:38:39.891Z,14.08
2023-06-05T00:41:06.719Z,14.01
2023-06-05T00:43:33.490Z,13.96
2023-06-05T00:46:04.043Z,13.93
2023-06-05T00:48:33.223Z,13.90
2023-06-05T00:51:00.125Z,13.87
2023-06-05T00:53:28.282Z,13.88
2023-06-05T00:55:55.008Z,13.88
2023-06-05T00:58:21.804Z,13.89
2023-06-05T01:00:49.722Z,13.89
2023-06-05T01:03:17.456Z,13.88
2023-06-05T01:05:44.301Z,13.86
2023-06-05T01:08:12.834Z,13.82
2023-06-05T01:10:39.541Z,13.81
2023-06-05T01:13:19.121Z,13.77
2023-06-05T01:15:46.288Z,13.75
2023-06-05T01:18:13.689Z,13.74
2023-06-05T01:20:40.374Z,13.74
2023-06-05T01:23:07.870Z,13.75
2023-06-05T01:25:36.866Z,13.75
2023-06-05T01:28:23.335Z,13.75
2023-06-05T01:31:01.892Z,13.76
2023-06-05T01:33:34.581Z,13.75
2023-06-05T01:36:05.224Z,13.74
2023-06-05T01:38:35.452Z,13.71
2023-06-05T01:41:04.430Z,13.65
2023-06-05T01:43:32.688Z,13.58
2023-06-05T01:46:00.420Z,13.53
2023-06-05T01:48:28.306Z,13.48
2023-06-05T01:50:57.581Z,13.44
2023-06-05T01:53:24.130Z,13.41
2023-06-05T01:55:52.989Z,13.39
2023-06-05T01:58:21.704Z,13.38
2023-06-05T02:00:48.289Z,13.38
2023-06-05T02:03:16.338Z,13.39
2023-06-05T02:05:43.162Z,13.40
2023-06-05T02:08:10.532Z,13.42
2023-06-05T02:10:41.063Z,13.43
2023-06-05T02:13:07.557Z,13.43
2023-06-05T02:15:35.425Z,13.40
2023-06-05T02:18:03.393Z,13.36
2023-06-05T02:20:32.600Z,13.33
2023-06-05T02:22:59.266Z,13.29
2023-06-05T02:25:27.503Z,13.25
2023-06-05T02:27:54.872Z,13.21
2023-06-05T02:30:22.367Z,13.18
2023-06-05T02:32:56.969Z,13.16
2023-06-05T02:35:24.683Z,13.14
2023-06-05T02:37:51.988Z,13.13
2023-06-05T02:40:51.324Z,13.12
2023-06-05T02:44:29.286Z,13.10
2023-06-05T02:48:11.356Z,13.09
2023-06-05T02:52:02.379Z,13.08
2023-06-05T03:03:15.402Z,13.12
2023-06-05T03:07:07.270Z,13.09
2023-06-05T03:10:01.993Z,13.03
2023-06-05T03:12:29.110Z,13.00
2023-06-05T03:14:56.060Z,12.97
2023-06-05T03:17:23.676Z,12.93
2023-06-05T03:19:51.315Z,12.91
2023-06-05T03:22:18.589Z,12.90
2023-06-05T03:24:46.087Z,12.91
2023-06-05T03:27:13.082Z,12.94
2023-06-05T03:29:40.002Z,12.98
2023-06-05T03:32:07.220Z,13.03
2023-06-05T03:34:36.694Z,13.07
2023-06-05T03:37:04.319Z,13.10
2023-06-05T03:39:31.380Z,13.11
2023-06-05T03:41:58.190Z,13.11
2023-06-05T03:44:26.835Z,13.12
2023-06-05T03:46:54.170Z,13.12
2023-06-05T03:49:20.889Z,13.11
2023-06-05T03:51:50.139Z,13.10
2023-06-05T03:54:17.250Z,13.10
2023-06-05T03:56:49.791Z,13.11
2023-06-05T03:59:20.424Z,13.15
2023-06-05T04:01:50.679Z,13.23
2023-06-05T04:04:17.701Z,13.32
2023-06-05T04:06:45.957Z,13.40
2023-06-05T04:09:13.148Z,13.48
2023-06-05T04:11:44.428Z,13.55
2023-06-05T04:14:11.862Z,13.61
2023-06-05T04:16:39.426Z,13.67
2023-06-05T04:19:07.099Z,13.72
2023-06-05T04:21:36.490Z,13.76
2023-06-05T04:24:07.317Z,13.81
2023-06-05T04:26:34.881Z,13.87
2023-06-05T04:29:03.343Z,13.93
2023-06-05T04:31:30.899Z,13.98
2023-06-05T04:33:57.438Z,14.04
2023-06-05T04:36:25.345Z,14.10
2023-06-05T04:38:52.192Z,14.17
2023-06-05T04:41:18.929Z,14.27
2023-06-05T04:43:45.924Z,14.38
2023-06-05T04:46:12.579Z,14.46
2023-06-05T04:48:39.141Z,14.54
2023-06-05T04:51:05.902Z,14.59
2023-06-05T04:53:32.518Z,14.64
2023-06-05T04:56:00.673Z,14.66
2023-06-05T04:58:28.249Z,14.72
2023-06-05T05:00:55.620Z,14.75
2023-06-05T05:03:22.496Z,14.81
2023-06-05T05:05:51.539Z,14.87
2023-06-05T05:08:18.173Z,14.94
2023-06-05T05:10:44.713Z,15.00
2023-06-05T05:13:11.509Z,15.07
2023-06-05T05:15:38.088Z,15.15
2023-06-05T05:18:05.073Z,15.22
2023-06-05T05:20:32.811Z,15.29
2023-06-05T05:23:21.638Z,15.35
2023-06-05T05:25:54.572Z,15.40
2023-06-05T05:28:21.333Z,15.43
2023-06-05T05:30:48.210Z,15.48
2023-06-05T05:33:15.252Z,15.51
2023-06-05T05:35:44.481Z,15.57
2023-06-05T05:38:12.463Z,15.65
2023-06-05T05:40:39.002Z,15.77
2023-06-05T05:43:05.717Z,15.85
2023-06-05T05:45:32.554Z,15.95
2023-06-05T05:47:59.218Z,16.04
2023-06-05T05:50:25.691Z,16.12
2023-06-05T05:52:53.466Z,16.19
2023-06-05T05:55:20.392Z,16.17
2023-06-05T05:57:47.032Z,16.25
2023-06-05T06:00:14.209Z,16.33
2023-06-05T06:02:58.705Z,16.45
2023-06-05T06:06:41.849Z,16.58
2023-06-05T06:10:28.445Z,16.71
2023-06-05T06:18:05.203Z,17.04
2023-06-05T06:21:31.012Z,17.21
2023-06-05T06:25:20.970Z,17.41
2023-06-05T06:29:22.972Z,17.60
2023-06-05T06:36:16.700Z,17.90
2023-06-05T06:39:53.056Z,17.97
2023-06-05T06:43:39.173Z,17.99
2023-06-05T06:48:06.813Z,18.17
2023-06-05T06:51:38.094Z,18.28
2023-06-05T06:55:08.010Z,18.42
2023-06-05T07:01:35.950Z,18.58
2023-06-05T07:05:06.354Z,18.57
2023-06-05T07:08:59.083Z,18.71
2023-06-05T07:12:52.244Z,18.85
2023-06-05T07:16:22.112Z,18.96
2023-06-05T07:20:03.910Z,19.16
2023-06-05T07:27:27.605Z,19.55
2023-06-05T07:34:15.951Z,19.89
2023-06-05T07:37:55.050Z,20.08
2023-06-05T07:55:49.403Z,20.24
2023-06-05T08:08:00.368Z,20.93
2023-06-05T08:15:53.424Z,21.43
2023-06-05T08:19:48.803Z,21.62
2023-06-05T08:30:15.097Z,22.29
2023-06-05T08:45:30.074Z,22.76
2023-06-05T08:48:35.952Z,22.99
2023-06-05T08:52:17.002Z,23.22
2023-06-05T08:55:45.094Z,23.06
2023-06-05T08:58:59.941Z,23.19
2023-06-05T09:02:08.561Z,23.41
2023-06-05T09:05:38.032Z,23.63
2023-06-05T09:09:11.997Z,23.93
2023-06-05T09:12:23.012Z,24.13
2023-06-05T09:16:03.077Z,24.28
2023-06-05T09:19:33.030Z,24.46
2023-06-05T09:23:18.008Z,24.60
2023-06-05T09:26:12.064Z,24.90
2023-06-05T09:29:01.587Z,25.16
2023-06-05T09:31:52.529Z,25.38
2023-06-05T09:34:42.311Z,25.56
2023-06-05T09:37:33.866Z,25.61
2023-06-05T09:40:12.948Z,25.70
2023-06-05T09:43:05.539Z,25.75
2023-06-05T09:45:56.246Z,25.88
2023-06-05T09:48:46.365Z,25.92
2023-06-05T09:51:23.623Z,26.08
2023-06-05T09:53:53.722Z,26.32
2023-06-05T09:56:43.839Z,26.49
2023-06-05T09:59:34.833Z,26.42
2023-06-05T10:02:06.912Z,26.30
2023-06-05T10:04:51.210Z,26.44
2023-06-05T10:07:21.065Z,25.97
2023-06-05T10:09:52.181Z,25.79
2023-06-05T10:12:26.044Z,26.08
2023-06-05T10:15:10.873Z,26.39
2023-06-05T10:17:42.464Z,26.64
2023-06-05T10:20:12.874Z,26.88
2023-06-05T10:22:45.171Z,27.09
2023-06-05T10:25:23.321Z,27.27
2023-06-05T10:28:27.120Z,27.44
2023-06-05T10:31:21.114Z,27.58
2023-06-05T10:34:04.335Z,27.82
2023-06-05T10:36:59.777Z,27.83
2023-06-05T10:39:37.920Z,27.98
2023-06-05T10:42:31.215Z,28.25
2023-06-05T10:45:08.634Z,28.50
2023-06-05T10:48:09.257Z,28.51
2023-06-05T10:50:57.383Z,28.33
2023-06-05T10:53:58.574Z,28.31
2023-06-05T10:57:15.044Z,28.61
2023-06-05T11:00:11.971Z,29.09
2023-06-05T11:02:48.203Z,29.40
2023-06-05T11:05:17.122Z,29.77
2023-06-05T11:07:46.968Z,30.08
2023-06-05T11:10:21.614Z,30.37
2023-06-05T11:13:00.205Z,30.67
2023-06-05T11:15:41.130Z,30.78
2023-06-05T11:18:32.927Z,30.65
2023-06-05T11:21:08.138Z,30.51
2023-06-05T11:23:36.403Z,30.38
2023-06-05T11:26:42.347Z,30.26
2023-06-05T11:29:28.898Z,30.35
2023-06-05T11:32:16.866Z,30.53
2023-06-05T11:34:48.708Z,30.66
2023-06-05T11:37:20.822Z,30.70
2023-06-05T11:39:55.326Z,30.63
2023-06-05T11:42:27.131Z,30.75
2023-06-05T11:44:57.806Z,30.97
2023-06-05T11:47:44.594Z,31.40
2023-06-05T11:50:19.223Z,31.63
2023-06-05T11:53:14.312Z,31.85
2023-06-05T11:56:09.141Z,31.93
2023-06-05T11:58:50.072Z,31.99
2023-06-05T12:01:23.662Z,31.72
2023-06-05T12:04:19.905Z,31.47
2023-06-05T12:06:58.258Z,31.29
2023-06-05T12:09:28.839Z,30.94
2023-06-05T12:12:08.741Z,30.49
2023-06-05T12:14:43.283Z,30.00
2023-06-05T12:17:19.456Z,29.61
2023-06-05T12:19:57.162Z,29.28
2023-06-05T12:22:35.508Z,29.07
2023-06-05T12:25:26.709Z,28.87
2023-06-05T12:28:23.037Z,28.52
2023-06-05T12:31:24.361Z,28.18
2023-06-05T12:34:04.404Z,27.76
2023-06-05T12:36:48.302Z,27.50
2023-06-05T12:39:19.881Z,27.37
2023-06-05T12:42:15.048Z,27.28
2023-06-05T12:45:03.106Z,27.12
2023-06-05T12:47:38.016Z,26.99
2023-06-05T12:50:50.204Z,26.78
2023-06-05T12:53:41.738Z,26.49
2023-06-05T12:56:14.917Z,26.30
2023-06-05T12:58:46.584Z,26.16
2023-06-05T13:01:17.971Z,26.04
2023-06-05T13:03:52.433Z,25.98
2023-06-05T13:06:23.403Z,25.91
2023-06-05T13:08:53.927Z,25.90
2023-06-05T13:12:25.453Z,25.90
2023-06-05T13:15:00.391Z,25.90
2023-06-05T13:17:37.322Z,25.91
2023-06-05T13:20:19.339Z,25.91
2023-06-05T13:22:53.532Z,25.91
2023-06-05T13:25:32.833Z,25.95
2023-06-05T13:28:04.433Z,25.99
2023-06-05T13:30:58.539Z,26.06
2023-06-05T13:33:32.919Z,26.17
2023-06-05T13:36:04.782Z,26.34
2023-06-05T13:38:43.806Z,26.79
2023-06-05T13:41:15.296Z,27.31
2023-06-05T13:43:50.020Z,27.63
2023-06-05T13:46:18.514Z,27.97
2023-06-05T13:48:53.345Z,28.13
2023-06-05T13:51:23.418Z,28.19
2023-06-05T13:54:00.522Z,28.19
2023-06-05T14:00:52.027Z,27.19
2023-06-05T14:03:50.350Z,26.72
2023-06-05T14:07:22.648Z,26.45
2023-06-05T14:10:00.520Z,26.27
2023-06-05T14:12:34.694Z,26.11
2023-06-05T14:15:29.323Z,26.04
2023-06-05T14:18:07.023Z,26.04
2023-06-05T14:20:38.599Z,26.12
2023-06-05T14:23:11.639Z,26.44
2023-06-05T14:26:01.966Z,26.55
2023-06-05T14:28:38.968Z,26.62
2023-06-05T14:31:09.339Z,26.68
2023-06-05T14:33:46.179Z,26.69
2023-06-05T14:36:35.416Z,26.63
2023-06-05T14:39:04.915Z,26.60
2023-06-05T14:41:33.933Z,26.58
2023-06-05T14:44:13.892Z,26.77
2023-06-05T14:46:52.988Z,27.15
2023-06-05T14:49:25.049Z,27.60
2023-06-05T14:51:53.355Z,27.93
2023-06-05T14:54:37.210Z,28.22
2023-06-05T14:57:06.895Z,28.73
2023-06-05T14:59:35.867Z,29.02
2023-06-05T15:02:06.708Z,29.06
2023-06-05T15:04:35.809Z,28.91
2023-06-05T15:07:07.639Z,28.77
2023-06-05T15:09:36.460Z,28.78
2023-06-05T15:12:11.473Z,28.96
2023-06-05T15:14:43.829Z,28.98
2023-06-05T15:17:16.832Z,28.89
2023-06-05T15:20:08.575Z,28.85
2023-06-05T15:22:39.219Z,29.07
2023-06-05T15:25:35.013Z,29.03
2023-06-05T15:28:04.030Z,28.94
2023-06-05T15:30:32.300Z,28.78
2023-06-05T15:33:06.041Z,28.60
2023-06-05T15:35:43.606Z,28.37
2023-06-05T15:38:21.574Z,28.05
2023-06-05T15:41:14.762Z,27.68
2023-06-05T15:43:46.837Z,27.55
2023-06-05T15:46:16.968Z,27.91
2023-06-05T15:48:48.042Z,28.36
2023-06-05T15:51:19.897Z,28.75
2023-06-05T15:54:03.327Z,28.85
2023-06-05T15:57:09.151Z,29.10
2023-06-05T15:59:38.062Z,29.29
2023-06-05T16:02:07.227Z,29.45
2023-06-05T16:04:37.651Z,29.76
2023-06-05T16:07:17.969Z,30.13
2023-06-05T16:09:49.452Z,30.46
2023-06-05T16:12:27.309Z,30.76
2023-06-05T16:15:02.289Z,30.85
2023-06-05T16:17:35.616Z,31.04
2023-06-05T16:20:14.047Z,31.08
2023-06-05T16:22:54.145Z,31.05
2023-06-05T16:25:30.921Z,31.10
2023-06-05T16:28:03.130Z,30.64
2023-06-05T16:30:38.374Z,30.01
2023-06-05T16:33:11.019Z,29.38
2023-06-05T16:35:42.984Z,28.79
2023-06-05T16:38:13.013Z,28.25
2023-06-05T16:40:41.221Z,27.99
2023-06-05T16:43:11.847Z,28.17
2023-06-05T16:45:40.523Z,28.83
2023-06-05T16:48:11.379Z,29.46
2023-06-05T16:50:49.270Z,30.07
2023-06-05T16:53:29.217Z,30.58
2023-06-05T16:56:05.087Z,30.87
2023-06-05T16:58:35.102Z,30.82
2023-06-05T17:01:03.985Z,30.95
2023-06-05T17:03:34.493Z,30.78
2023-06-05T17:06:18.282Z,30.02
2023-06-05T17:08:52.371Z,29.69
2023-06-05T17:11:29.776Z,29.36
2023-06-05T17:13:59.641Z,28.81
2023-06-05T17:16:45.076Z,28.25
2023-06-05T17:19:33.864Z,27.59
2023-06-05T17:22:05.385Z,27.05
2023-06-05T17:24:34.206Z,26.52
2023-06-05T17:27:06.926Z,26.09
2023-06-05T17:29:42.677Z,25.68
2023-06-05T17:32:34.236Z,25.30
2023-06-05T17:35:22.756Z,24.96
2023-06-05T17:38:30.646Z,24.62
2023-06-05T17:41:18.798Z,24.20
2023-06-05T17:44:23.105Z,23.78
2023-06-05T17:47:14.646Z,23.41
2023-06-05T17:49:50.783Z,23.09
2023-06-05T17:52:38.611Z,22.85
2023-06-05T17:55:43.110Z,22.65
2023-06-05T17:58:51.857Z,22.48
2023-06-05T18:02:01.412Z,22.23
2023-06-05T18:05:16.478Z,21.92
2023-06-05T18:12:17.475Z,21.37
2023-06-05T18:16:24.216Z,21.07
2023-06-05T18:19:54.748Z,20.84
2023-06-05T18:23:06.579Z,20.65
2023-06-05T18:26:43.586Z,20.54
2023-06-05T18:30:30.075Z,20.44
2023-06-05T18:34:25.004Z,20.40
2023-06-05T18:40:52.395Z,20.36
2023-06-05T18:44:15.134Z,20.34
2023-06-05T18:52:02.166Z,20.27
2023-06-05T18:55:33.168Z,20.23
2023-06-05T18:59:16.058Z,20.16
2023-06-05T19:03:07.233Z,20.09
2023-06-05T19:06:44.134Z,20.04
2023-06-05T19:10:30.132Z,20.00
2023-06-05T19:14:01.375Z,19.96
2023-06-05T19:17:20.177Z,19.90
2023-06-05T19:20:50.194Z,19.85
2023-06-05T19:24:05.647Z,19.79
2023-06-05T19:27:11.975Z,19.74
2023-06-05T19:33:21.019Z,19.58
2023-06-05T19:35:49.791Z,19.55
2023-06-05T19:38:17.925Z,19.50
2023-06-05T19:40:46.030Z,19.44
2023-06-05T19:43:13.925Z,19.39
2023-06-05T19:45:41.792Z,19.34
2023-06-05T19:48:09.886Z,19.30
2023-06-05T19:50:37.869Z,19.24
2023-06-05T19:53:06.131Z,19.20
2023-06-05T19:55:34.173Z,19.16
2023-06-05T19:58:02.615Z,19.10
2023-06-05T20:00:30.925Z,19.06
2023-06-05T20:02:59.305Z,19.03
2023-06-05T20:05:27.757Z,19.00
2023-06-05T20:07:55.679Z,18.97
2023-06-05T20:10:23.835Z,18.93
2023-06-05T20:12:51.709Z,18.88
2023-06-05T20:15:19.723Z,18.84
2023-06-05T20:17:47.822Z,18.81
2023-06-05T20:20:17.754Z,18.78
2023-06-05T20:22:46.119Z,18.76
2023-06-05T20:25:14.187Z,18.74
2023-06-05T20:27:42.208Z,18.70
2023-06-05T20:30:10.400Z,18.64
2023-06-05T20:32:38.359Z,18.59
2023-06-05T20:35:06.753Z,18.55
2023-06-05T20:37:34.623Z,18.49
2023-06-05T20:40:10.855Z,18.46
2023-06-05T20:42:38.740Z,18.46
2023-06-05T20:45:10.144Z,18.47
2023-06-05T20:47:40.398Z,18.49
2023-06-05T20:50:09.940Z,18.52
2023-06-05T20:52:38.094Z,18.57
2023-06-05T20:55:07.464Z,18.63
2023-06-05T20:57:35.817Z,18.68
2023-06-05T21:00:05.166Z,18.71
2023-06-05T21:02:33.286Z,18.73
2023-06-05T21:05:01.941Z,18.73
2023-06-05T21:07:29.813Z,18.72
2023-06-05T21:09:58.082Z,18.70
2023-06-05T21:12:27.074Z,18.66
2023-06-05T21:14:55.749Z,18.63
2023-06-05T21:17:24.415Z,18.59
2023-06-05T21:19:55.320Z,18.55
2023-06-05T21:22:26.080Z,18.51
2023-06-05T21:24:54.163Z,18.45
2023-06-05T21:27:22.159Z,18.39
2023-06-05T21:29:53.261Z,18.34
2023-06-05T21:32:21.791Z,18.28
2023-06-05T21:34:50.267Z,18.24
2023-06-05T21:37:19.674Z,18.19
2023-06-05T21:39:48.308Z,18.14
2023-06-05T21:42:17.765Z,18.10
2023-06-05T21:53:41.988Z,17.90
2023-06-05T21:56:58.205Z,17.83
2023-06-05T22:00:35.368Z,17.78
2023-06-05T22:04:34.060Z,17.74
2023-06-05T22:19:02.764Z,17.67
2023-06-05T22:23:15.119Z,17.68
2023-06-05T22:27:10.095Z,17.70
2023-06-05T23:04:24.129Z,17.01
2023-06-05T23:20:40.169Z,16.58
2023-06-05T23:24:17.090Z,16.52
